Time;durP1;ratioP1;P1;durP2;ratioP2;P2;SDS_P1;SDS_P2;PMS_P1;PMS_P2;Temp;Humidity;BMP_temperature;BMP_pressure;BME280_temperature;BME280_humidity;BME280_pressure;Samples;Min_cycle;Max_cycle;Signal;HPM_P1;HPM_P2
2023/03/22 00:00:36;;;;;;;25.00;14.32;;;;;;;12.18;74.60;99060.94;6110756;23;20005;-92
2023/03/22 00:03:02;;;;;;;25.63;14.88;;;;;;;12.10;75.13;99053.47;6087405;23;20404;-92
2023/03/22 00:05:29;;;;;;;27.02;14.75;;;;;;;12.30;75.29;99076.72;6111119;23;20356;-92
2023/03/22 00:07:56;;;;;;;25.83;14.85;;;;;;;12.28;75.29;99071.59;6111329;23;20499;-92
2023/03/22 00:10:24;;;;;;;24.15;14.77;;;;;;;12.31;75.25;99089.94;6111418;23;20001;-93
2023/03/22 00:12:53;;;;;;;28.08;16.05;;;;;;;12.04;76.38;99079.72;6088198;23;20047;-93
2023/03/22 00:15:19;;;;;;;24.58;15.02;;;;;;;11.95;76.66;99077.91;6109834;23;20460;-93
2023/03/22 00:17:44;;;;;;;27.17;15.75;;;;;;;11.76;77.72;99061.59;6135805;23;20006;-94
2023/03/22 00:20:10;;;;;;;29.88;15.30;;;;;;;11.97;77.21;99065.72;6135284;23;20029;-93
2023/03/22 00:22:37;;;;;;;28.98;16.00;;;;;;;12.03;76.87;99051.09;6110491;23;20343;-93
2023/03/22 00:25:03;;;;;;;27.80;17.15;;;;;;;12.01;76.84;99068.66;6109476;23;20005;-92
2023/03/22 00:27:29;;;;;;;30.83;17.08;;;;;;;12.03;76.09;99063.78;6110938;23;20436;-92
2023/03/22 00:29:54;;;;;;;28.48;16.77;;;;;;;12.12;76.59;99060.19;6134249;23;20009;-93
2023/03/22 00:32:20;;;;;;;29.38;16.40;;;;;;;12.04;77.43;99060.81;6134823;23;20384;-93
2023/03/22 00:34:45;;;;;;;28.55;16.27;;;;;;;12.00;76.93;99059.78;6134646;23;20432;-93
2023/03/22 00:37:11;;;;;;;24.73;15.98;;;;;;;12.05;76.71;99053.50;6135278;23;20009;-93
2023/03/22 00:39:36;;;;;;;28.98;17.15;;;;;;;12.11;76.72;99063.16;6111132;23;20028;-93
2023/03/22 00:42:05;;;;;;;29.25;16.48;;;;;;;12.05;77.84;99072.41;6135773;23;19984;-93
2023/03/22 00:44:31;;;;;;;33.10;17.60;;;;;;;11.83;79.00;99070.97;6134851;23;20445;-92
2023/03/22 00:46:56;;;;;;;30.45;17.00;;;;;;;11.94;79.02;99066.31;6109915;23;20052;-93
2023/03/22 00:49:22;;;;;;;27.70;17.13;;;;;;;12.00;78.73;99046.28;6135426;23;20001;-93
2023/03/22 00:51:47;;;;;;;30.00;17.42;;;;;;;11.98;77.55;99036.88;6134774;23;20400;-93
2023/03/22 00:54:13;;;;;;;28.25;16.98;;;;;;;11.97;78.49;99024.47;6111287;23;20332;-94
2023/03/22 00:56:38;;;;;;;30.33;17.65;;;;;;;11.85;78.81;99044.53;6133942;23;20001;-93
2023/03/22 00:59:04;;;;;;;28.58;17.10;;;;;;;11.91;78.91;99051.50;6110403;23;20004;-93
2023/03/22 01:01:29;;;;;;;33.15;17.17;;;;;;;11.86;79.29;99054.22;6135416;23;20001;-93
2023/03/22 01:03:55;;;;;;;27.40;16.90;;;;;;;11.77;79.42;99055.13;6110876;23;20448;-93
2023/03/22 01:06:20;;;;;;;27.45;17.30;;;;;;;11.81;79.86;99062.38;6133708;23;20401;-93
2023/03/22 01:08:49;;;;;;;30.23;17.45;;;;;;;11.79;79.61;99052.94;6134715;23;20005;-92
2023/03/22 01:11:15;;;;;;;26.17;16.75;;;;;;;11.75;79.74;99058.09;6111396;23;20032;-92
2023/03/22 01:13:40;;;;;;;35.05;17.85;;;;;;;11.86;79.51;99066.91;6109746;23;20368;-93
2023/03/22 01:16:06;;;;;;;30.45;16.20;;;;;;;11.80;79.55;99066.13;6134678;23;20001;-92
2023/03/22 01:18:32;;;;;;;36.40;16.95;;;;;;;11.86;79.47;99065.00;6087053;23;19997;-92
2023/03/22 01:20:58;;;;;;;30.73;17.45;;;;;;;11.90;79.53;99055.28;6110998;23;20076;-92
2023/03/22 01:23:23;;;;;;;27.15;16.58;;;;;;;11.87;79.32;99058.53;6110187;23;20001;-92
2023/03/22 01:25:49;;;;;;;30.17;16.63;;;;;;;11.89;78.96;99061.78;6133281;23;20005;-93
2023/03/22 01:28:14;;;;;;;31.23;17.00;;;;;;;11.81;79.55;99050.78;6136056;23;20006;-92
2023/03/22 01:30:40;;;;;;;32.13;16.63;;;;;;;11.86;80.05;99053.41;6135456;23;19998;-92
2023/03/22 01:33:06;;;;;;;27.83;16.90;;;;;;;11.90;79.54;99039.09;6134374;23;19997;-95
2023/03/22 01:35:32;;;;;;;29.38;17.92;;;;;;;11.85;78.85;99025.63;6110142;23;20080;-94
2023/03/22 01:37:58;;;;;;;26.27;16.60;;;;;;;11.93;78.44;99041.22;6134434;23;20005;-94
2023/03/22 01:40:24;;;;;;;29.17;16.33;;;;;;;11.81;79.72;99062.38;6135372;23;20405;-94
2023/03/22 01:42:49;;;;;;;30.08;17.73;;;;;;;11.59;81.23;99045.84;6134768;23;20433;-93
2023/03/22 01:45:17;;;;;;;29.92;18.13;;;;;;;11.83;80.71;99062.88;6109478;23;20002;-94
2023/03/22 01:47:57;;;;;;;30.13;17.60;;;;;;;11.91;80.01;99046.09;6156924;23;20495;-93
2023/03/22 01:50:23;;;;;;;31.45;16.63;;;;;;;11.94;79.77;99047.44;6108316;23;20001;-92
2023/03/22 01:52:48;;;;;;;27.42;17.30;;;;;;;12.00;79.44;99056.28;6109330;23;19997;-93
2023/03/22 01:55:17;;;;;;;29.63;17.42;;;;;;;12.01;79.67;99039.78;6134868;23;20009;-93
2023/03/22 01:57:42;;;;;;;26.48;16.15;;;;;;;11.91;77.84;99031.78;6135433;23;20337;-92
2023/03/22 02:00:14;;;;;;;25.40;16.60;;;;;;;12.00;78.03;99050.88;6133707;23;20005;-93
2023/03/22 02:02:41;;;;;;;27.42;15.43;;;;;;;12.02;77.31;99051.41;6112978;23;20021;-92
2023/03/22 02:05:07;;;;;;;27.02;16.33;;;;;;;12.04;77.10;99041.94;6111453;23;20040;-93
2023/03/22 02:07:33;;;;;;;24.02;14.77;;;;;;;12.11;77.33;99046.97;6134691;23;19992;-95
2023/03/22 02:09:58;;;;;;;23.23;14.93;;;;;;;12.11;77.09;99042.38;6110319;23;20080;-92
2023/03/22 02:12:24;;;;;;;24.42;15.38;;;;;;;12.21;77.59;99041.47;6134661;23;20001;-92
2023/03/22 02:15:07;;;;;;;28.00;16.20;;;;;;;12.18;78.34;99052.84;6159216;23;20012;-92
2023/03/22 02:18:06;;;;;;;23.25;14.48;;;;;;;12.03;78.27;99028.72;6133691;23;20001;-93
2023/03/22 02:20:49;;;;;;;26.92;15.75;;;;;;;12.04;78.54;99039.22;6108914;23;20041;-92
2023/03/22 02:23:39;;;;;;;27.83;15.70;;;;;;;12.17;78.63;99036.94;6134454;23;20020;-93
2023/03/22 02:26:23;;;;;;;26.83;15.40;;;;;;;12.15;78.72;99048.00;6112487;23;20511;-92
2023/03/22 02:29:20;;;;;;;28.65;15.85;;;;;;;12.09;78.31;99046.47;6158530;23;20101;-93
2023/03/22 02:31:55;;;;;;;26.08;15.48;;;;;;;12.10;77.96;99045.38;6138831;23;20006;-92
2023/03/22 02:34:43;;;;;;;25.80;15.60;;;;;;;12.05;78.78;99054.31;6160018;23;20009;-92
2023/03/22 02:37:08;;;;;;;28.13;14.85;;;;;;;12.05;78.46;99057.00;6135611;23;20084;-93
2023/03/22 02:39:43;;;;;;;29.27;16.15;;;;;;;11.84;80.12;99060.97;6160616;23;20004;-92
2023/03/22 02:42:21;;;;;;;30.10;19.15;;;;;;;11.91;79.88;99061.47;6135527;23;20087;-92
2023/03/22 02:45:02;;;;;;;31.80;19.05;;;;;;;12.00;79.89;99056.28;6160595;23;20080;-92
2023/03/22 02:47:33;;;;;;;28.98;18.63;;;;;;;11.96;79.44;99047.16;6161415;23;20005;-91
2023/03/22 02:50:13;;;;;;;31.75;17.55;;;;;;;11.87;79.75;99060.41;6135541;23;20048;-93
2023/03/22 02:52:44;;;;;;;29.90;16.20;;;;;;;11.87;79.57;99071.19;6134878;23;20001;-92
2023/03/22 02:55:17;;;;;;;24.60;16.08;;;;;;;11.98;79.41;99067.34;6135614;23;20021;-92
2023/03/22 02:57:54;;;;;;;27.20;15.57;;;;;;;11.87;79.31;99073.88;6135262;23;20002;-93
2023/03/22 03:00:19;;;;;;;24.40;14.60;;;;;;;11.87;78.62;99066.63;6136475;23;20009;-93
2023/03/22 03:02:51;;;;;;;27.05;16.05;;;;;;;11.80;79.00;99041.06;6135334;23;19993;-91
2023/03/22 03:05:17;;;;;;;25.95;15.52;;;;;;;11.73;79.79;99061.06;6136391;23;19997;-92
2023/03/22 03:07:44;;;;;;;28.58;15.95;;;;;;;11.81;78.98;99064.25;6135085;23;20353;-93
2023/03/22 03:10:11;;;;;;;26.05;15.50;;;;;;;11.82;78.10;99066.66;6136044;23;20005;-92
2023/03/22 03:12:36;;;;;;;26.13;15.25;;;;;;;11.85;78.20;99071.50;6111184;23;19997;-92
2023/03/22 03:15:15;;;;;;;25.10;15.98;;;;;;;11.86;79.13;99067.69;6135614;23;20071;-93
2023/03/22 03:18:16;;;;;;;25.83;15.70;;;;;;;11.76;79.78;99057.00;6112920;23;20345;-93
2023/03/22 03:21:01;;;;;;;20.75;12.98;;;;;;;11.61;80.32;99066.03;6115940;23;20005;-93
2023/03/22 03:23:50;;;;;;;21.83;12.98;;;;;;;11.59;80.28;99062.81;6160424;23;19981;-92
2023/03/22 03:26:21;;;;;;;22.45;13.70;;;;;;;11.50;81.08;99062.63;6137471;23;20059;-93
2023/03/22 03:28:48;;;;;;;19.00;11.55;;;;;;;11.38;81.20;99061.38;6162641;23;20100;-92
2023/03/22 03:31:19;;;;;;;19.83;12.32;;;;;;;11.52;80.17;99055.06;6159089;23;20008;-92
2023/03/22 03:34:14;;;;;;;17.55;11.82;;;;;;;11.57;80.01;99048.81;6136118;23;20028;-93
2023/03/22 03:36:42;;;;;;;21.92;12.00;;;;;;;11.40;80.52;99045.72;6114227;23;20029;-93
2023/03/22 03:39:08;;;;;;;21.10;12.52;;;;;;;11.36;81.35;99058.97;6136630;23;20064;-93
2023/03/22 03:41:34;;;;;;;20.90;12.20;;;;;;;11.43;81.13;99074.81;6135524;23;20424;-93
2023/03/22 03:44:00;;;;;;;18.88;10.90;;;;;;;11.39;80.66;99068.38;6110974;23;20012;-93
2023/03/22 03:46:28;;;;;;;20.95;11.52;;;;;;;11.15;81.64;99057.50;6134670;23;20004;-92
2023/03/22 03:48:54;;;;;;;21.08;11.23;;;;;;;11.47;80.88;99075.84;6111666;23;20072;-94
2023/03/22 03:51:19;;;;;;;15.75;9.82;;;;;;;11.45;80.65;99070.72;6135686;23;20005;-92
2023/03/22 03:53:45;;;;;;;15.40;10.23;;;;;;;11.39;80.02;99049.50;6111880;23;20002;-93
2023/03/22 03:56:11;;;;;;;19.30;10.85;;;;;;;11.61;79.96;99070.63;6111116;23;20017;-93
2023/03/22 03:58:37;;;;;;;15.07;8.95;;;;;;;11.60;79.30;99067.13;6110325;23;20009;-92
2023/03/22 04:01:02;;;;;;;13.25;9.23;;;;;;;11.70;78.81;99077.84;6110878;23;20009;-93
2023/03/22 04:03:28;;;;;;;11.80;8.18;;;;;;;11.71;79.27;99074.03;6112307;23;20104;-94
2023/03/22 04:05:54;;;;;;;16.35;9.05;;;;;;;11.68;79.11;99071.91;6135925;23;20057;-94
2023/03/22 04:08:20;;;;;;;12.43;9.05;;;;;;;11.73;79.50;99079.97;6111437;23;20006;-94
2023/03/22 04:10:51;;;;;;;12.88;8.05;;;;;;;11.67;78.79;99064.91;6111706;23;20081;-93
2023/03/22 04:13:20;;;;;;;13.02;8.45;;;;;;;11.73;78.97;99074.56;6111981;23;20067;-95
2023/03/22 04:15:46;;;;;;;13.20;8.75;;;;;;;11.47;79.12;99060.47;6117502;23;19994;-95
2023/03/22 04:18:11;;;;;;;12.23;8.30;;;;;;;11.55;79.80;99083.34;6112935;23;20016;-93
2023/03/22 04:20:40;;;;;;;11.80;8.63;;;;;;;11.54;80.77;99097.94;6091612;23;20024;-96
2023/03/22 04:23:09;;;;;;;12.75;8.38;;;;;;;11.43;80.43;99075.59;6116913;23;19997;-96
2023/03/22 04:25:38;;;;;;;12.40;8.48;;;;;;;11.39;80.20;99081.84;6118477;23;19997;-96
2023/03/22 04:28:04;;;;;;;11.70;8.43;;;;;;;11.35;80.56;99072.72;6117370;23;20001;-96
2023/03/22 04:30:29;;;;;;;14.73;9.45;;;;;;;11.36;80.34;99071.63;6093762;23;20009;-96
2023/03/22 04:33:05;;;;;;;13.10;8.80;;;;;;;11.50;79.49;99084.19;6120968;23;20008;-96
2023/03/22 04:35:31;;;;;;;14.93;9.15;;;;;;;11.66;79.83;99102.94;6119035;23;20008;-95
2023/03/22 04:37:58;;;;;;;15.45;9.35;;;;;;;11.61;79.32;99082.22;6112388;23;19998;-94
2023/03/22 04:40:25;;;;;;;15.15;9.85;;;;;;;11.50;79.17;99075.31;6112425;23;20001;-95
2023/03/22 04:42:56;;;;;;;14.40;9.77;;;;;;;11.70;79.07;99094.03;6111479;23;20024;-94
2023/03/22 04:45:21;;;;;;;17.08;9.95;;;;;;;11.64;79.50;99088.94;6112898;23;20006;-94
2023/03/22 04:47:47;;;;;;;15.30;9.10;;;;;;;11.60;80.12;99093.28;6111835;23;20305;-94
2023/03/22 04:50:12;;;;;;;13.35;9.23;;;;;;;11.68;79.81;99085.41;6110519;23;19985;-95
2023/03/22 04:52:39;;;;;;;13.68;9.45;;;;;;;11.76;79.01;99088.56;6111727;23;20396;-95
2023/03/22 04:55:05;;;;;;;13.18;8.50;;;;;;;11.65;78.13;99099.44;6105087;23;20026;-94
2023/03/22 04:57:30;;;;;;;14.27;9.45;;;;;;;11.65;78.98;99104.03;6083313;23;20002;-96
2023/03/22 04:59:58;;;;;;;16.60;10.20;;;;;;;11.51;80.40;99091.19;6059698;23;20002;-95
2023/03/22 05:02:23;;;;;;;13.13;8.93;;;;;;;11.47;80.50;99092.03;6083321;23;20430;-88
2023/03/22 05:04:49;;;;;;;16.95;10.40;;;;;;;11.62;80.84;99137.78;6103134;23;20004;-88
2023/03/22 05:07:14;;;;;;;14.00;10.02;;;;;;;11.59;80.51;99113.25;6079440;23;20002;-88
2023/03/22 05:09:40;;;;;;;16.45;9.45;;;;;;;11.79;80.78;99137.38;6080843;23;20006;-90
2023/03/22 05:12:06;;;;;;;14.75;9.52;;;;;;;11.72;80.58;99120.69;6079601;23;20024;-88
2023/03/22 05:14:34;;;;;;;16.50;9.57;;;;;;;11.86;80.44;99135.13;6079922;23;20006;-95
2023/03/22 05:17:02;;;;;;;14.15;9.27;;;;;;;11.97;79.69;99127.00;6110300;23;20414;-95
2023/03/22 05:19:28;;;;;;;16.92;9.30;;;;;;;12.01;79.28;99128.84;6083153;23;20033;-94
2023/03/22 05:21:57;;;;;;;14.40;9.40;;;;;;;12.11;78.73;99144.13;6108317;23;19998;-93
2023/03/22 05:24:22;;;;;;;14.13;8.27;;;;;;;11.99;78.76;99130.22;6084289;23;19998;-95
2023/03/22 05:26:52;;;;;;;15.05;9.13;;;;;;;12.05;79.04;99131.78;6083285;23;20001;-96
2023/03/22 05:29:21;;;;;;;16.75;10.48;;;;;;;12.03;79.06;99125.84;6091564;23;20016;-94
2023/03/22 05:31:47;;;;;;;13.07;8.45;;;;;;;11.97;79.02;99127.00;6088722;23;20008;-93
2023/03/22 05:34:12;;;;;;;14.90;8.63;;;;;;;11.93;78.27;99135.66;6084141;23;20002;-94
2023/03/22 05:36:38;;;;;;;13.77;9.70;;;;;;;12.00;78.69;99145.31;6083361;23;20006;-89
2023/03/22 05:39:04;;;;;;;13.50;9.25;;;;;;;12.00;79.36;99159.63;6081855;23;20034;-89
2023/03/22 05:41:32;;;;;;;18.77;10.57;;;;;;;11.91;79.85;99166.69;6103880;23;20056;-89
2023/03/22 05:44:00;;;;;;;14.13;9.02;;;;;;;11.96;79.46;99168.56;6083156;23;20005;-91
2023/03/22 05:46:26;;;;;;;13.88;8.55;;;;;;;12.07;78.81;99161.97;6081309;23;20421;-88
2023/03/22 05:48:51;;;;;;;7.53;5.50;;;;;;;12.23;77.25;99182.34;6054704;23;20064;-89
2023/03/22 05:51:26;;;;;;;7.35;5.13;;;;;;;12.08;76.65;99163.59;6078970;23;19998;-93
2023/03/22 05:53:55;;;;;;;6.35;4.93;;;;;;;11.97;76.51;99159.38;6092263;23;20417;-94
2023/03/22 05:56:23;;;;;;;6.80;4.13;;;;;;;11.80;76.68;99159.75;6115791;23;20041;-95
2023/03/22 05:58:49;;;;;;;5.22;3.72;;;;;;;11.82;75.43;99165.66;6117063;23;20005;-96
2023/03/22 06:01:16;;;;;;;4.82;3.72;;;;;;;11.77;75.60;99182.69;6121087;23;20009;-90
2023/03/22 06:03:41;;;;;;;7.15;3.55;;;;;;;11.80;74.82;99202.91;6112226;23;20417;-89
2023/03/22 06:06:10;;;;;;;6.40;3.50;;;;;;;11.37;76.30;99156.78;6140657;23;20081;-96
2023/03/22 06:08:38;;;;;;;4.30;3.42;;;;;;;11.46;76.17;99166.72;6114565;23;20001;-95
2023/03/22 06:11:13;;;;;;;5.55;3.60;;;;;;;11.58;76.98;99192.53;6116192;23;20084;-95
2023/03/22 06:13:43;;;;;;;5.22;3.95;;;;;;;11.58;77.20;99190.66;6096324;23;20462;-89
2023/03/22 06:16:09;;;;;;;5.43;3.10;;;;;;;11.52;75.79;99180.97;6114547;23;20469;-88
2023/03/22 06:18:35;;;;;;;4.68;3.03;;;;;;;11.41;74.76;99179.41;6115609;23;20005;-91
2023/03/22 06:21:00;;;;;;;5.90;3.17;;;;;;;11.41;76.89;99211.78;6137744;23;19997;-88
2023/03/22 06:23:32;;;;;;;5.70;3.67;;;;;;;11.33;76.28;99194.31;6116537;23;20028;-93
2023/03/22 06:26:00;;;;;;;8.13;4.28;;;;;;;11.35;76.25;99202.09;6091312;23;20009;-88
2023/03/22 06:28:28;;;;;;;7.88;4.72;;;;;;;11.17;76.01;99184.69;6113939;23;19993;-86
2023/03/22 06:30:54;;;;;;;5.13;3.53;;;;;;;11.17;75.71;99198.16;6109975;23;20005;-90
2023/03/22 06:33:20;;;;;;;4.22;3.00;;;;;;;11.05;76.25;99220.03;6112146;23;20514;-90
2023/03/22 06:35:46;;;;;;;3.72;2.63;;;;;;;11.00;75.99;99209.25;6112577;23;20002;-90
2023/03/22 06:38:14;;;;;;;4.35;2.88;;;;;;;10.97;75.05;99205.22;6115277;23;20001;-94
2023/03/22 06:40:55;;;;;;;10.68;4.50;;;;;;;11.04;76.18;99219.22;6112133;23;19998;-89
2023/03/22 06:43:30;;;;;;;6.38;3.08;;;;;;;10.92;75.65;99210.66;6107512;23;20003;-89
2023/03/22 06:45:56;;;;;;;15.60;9.27;;;;;;;10.82;77.15;99195.31;6111970;23;20032;-89
2023/03/22 06:48:22;;;;;;;7.25;4.65;;;;;;;11.22;77.35;99236.66;6112135;23;20005;-88
2023/03/22 06:50:47;;;;;;;30.80;17.50;;;;;;;11.22;77.02;99243.94;6115501;23;20005;-91
2023/03/22 06:53:15;;;;;;;7.80;5.78;;;;;;;11.16;77.11;99236.94;6138435;23;20065;-88
2023/03/22 06:55:40;;;;;;;8.95;4.50;;;;;;;11.12;77.22;99224.03;6105286;23;20100;-88
2023/03/22 06:58:10;;;;;;;11.88;4.00;;;;;;;11.20;77.12;99251.50;6087058;23;20010;-92
2023/03/22 07:00:42;;;;;;;6.03;4.07;;;;;;;11.03;77.89;99241.03;6137849;23;20077;-90
2023/03/22 07:03:12;;;;;;;5.70;3.60;;;;;;;10.96;77.69;99249.41;6113712;23;19997;-90
2023/03/22 07:05:39;;;;;;;7.38;5.50;;;;;;;11.13;78.67;99286.81;6144906;23;20008;-90
2023/03/22 07:08:47;;;;;;;7.35;5.45;;;;;;;11.04;77.77;99267.72;6071974;23;20068;-92
2023/03/22 07:11:13;;;;;;;47.13;27.10;;;;;;;11.05;78.31;99276.59;6138405;23;20010;-92
2023/03/22 07:13:46;;;;;;;8.77;6.57;;;;;;;11.06;78.05;99275.50;6084936;23;20005;-92
2023/03/22 07:16:18;;;;;;;6.82;4.97;;;;;;;11.29;76.69;99285.69;6099232;23;19997;-90
2023/03/22 07:18:54;;;;;;;4.45;3.33;;;;;;;11.15;76.33;99256.91;6118131;23;19998;-94
2023/03/22 07:21:28;;;;;;;6.35;4.47;;;;;;;11.29;77.12;99274.09;6120465;23;20025;-93
2023/03/22 07:23:57;;;;;;;;;;;;;;;11.23;77.49;99257.16;6141974;23;19993;-93
2023/03/22 07:26:24;;;;;;;5.80;3.58;;;;;;;11.07;76.09;99228.63;6114740;23;19952;-93
2023/03/22 07:28:56;;;;;;;5.75;3.75;;;;;;;11.24;75.40;99249.84;6085175;23;20029;-92
2023/03/22 07:31:21;;;;;;;4.80;3.45;;;;;;;11.03;74.98;99238.34;6062125;23;20045;-91
2023/03/22 07:33:55;;;;;;;6.82;3.72;;;;;;;11.28;74.14;99277.88;6114729;23;19990;-95
2023/03/22 07:36:51;;;;;;;11.77;7.20;;;;;;;11.24;77.85;99253.34;6088490;23;20108;-94
2023/03/22 07:39:19;;;;;;;20.73;9.90;;;;;;;11.08;78.84;99249.09;6076110;23;20002;-94
2023/03/22 07:41:45;;;;;;;12.23;6.95;;;;;;;11.45;78.59;99280.22;6028410;23;20043;-94
2023/03/22 07:46:55;;;;;;;13.32;7.43;;;;;;;11.47;77.52;99240.31;6167567;23;20032;-92
2023/03/22 07:49:22;;;;;;;12.70;6.75;;;;;;;11.73;78.03;99263.38;6146461;23;20016;-92
2023/03/22 07:52:14;;;;;;;14.60;8.65;;;;;;;11.93;77.72;99280.53;6146635;23;20081;-93
2023/03/22 07:54:42;;;;;;;16.73;7.90;;;;;;;12.08;76.96;99287.75;6124347;23;20009;-89
2023/03/22 07:57:16;;;;;;;9.52;6.30;;;;;;;12.09;76.21;99259.66;6119704;23;20077;-91
2023/03/22 07:59:52;;;;;;;15.82;7.07;;;;;;;12.32;75.52;99285.94;6126925;23;19997;-93
2023/03/22 08:02:18;;;;;;;11.18;6.75;;;;;;;12.38;75.31;99267.00;6093577;23;20432;-91
2023/03/22 08:04:45;;;;;;;15.13;9.68;;;;;;;12.51;74.07;99291.47;6144298;23;20009;-88
2023/03/22 08:07:14;;;;;;;12.05;6.82;;;;;;;12.67;73.42;99285.91;6118941;23;20442;-87
2023/03/22 08:09:40;;;;;;;9.30;5.40;;;;;;;12.79;70.50;99274.75;6136399;23;20033;-87
2023/03/22 08:14:41;;;;;;;7.85;5.88;;;;;;;12.89;71.34;99263.84;6194722;23;20055;-89
2023/03/22 08:17:07;;;;;;;7.57;5.70;;;;;;;12.94;69.26;99255.66;6138843;23;20012;-87
2023/03/22 08:19:33;;;;;;;7.15;5.70;;;;;;;12.98;68.53;99254.00;6139384;23;19993;-88
2023/03/22 08:22:01;;;;;;;7.32;4.60;;;;;;;13.07;70.00;99273.09;6139745;23;20061;-87
2023/03/22 08:24:26;;;;;;;7.90;5.53;;;;;;;12.92;70.66;99272.16;6162929;23;20385;-87
2023/03/22 08:26:56;;;;;;;7.35;5.13;;;;;;;12.84;70.39;99264.66;6164088;23;20001;-91
2023/03/22 08:29:26;;;;;;;7.28;5.07;;;;;;;13.06;69.69;99247.16;6179355;23;20012;-88
2023/03/22 08:31:52;;;;;;;7.43;3.85;;;;;;;12.97;69.19;99244.28;6177259;23;19993;-90
2023/03/22 08:34:19;;;;;;;7.97;4.05;;;;;;;13.03;68.55;99229.63;6173913;23;20008;-89
2023/03/22 08:36:45;;;;;;;8.25;4.38;;;;;;;13.09;70.96;99271.72;6146017;23;20001;-90
2023/03/22 08:39:12;;;;;;;6.15;3.95;;;;;;;13.12;70.87;99252.22;6165830;23;19993;-91
2023/03/22 08:42:27;;;;;;;6.20;3.63;;;;;;;13.39;70.43;99268.97;6142356;23;20085;-92
2023/03/22 08:45:15;;;;;;;7.53;4.47;;;;;;;13.67;71.25;99267.25;6106545;23;20013;-91
2023/03/22 08:47:41;;;;;;;10.25;6.65;;;;;;;13.57;71.25;99253.84;6079155;23;20147;-91
2023/03/22 08:50:13;;;;;;;10.02;6.05;;;;;;;13.80;71.49;99249.47;6111477;23;20013;-91
2023/03/22 08:53:01;;;;;;;8.73;5.30;;;;;;;13.93;70.79;99265.00;6142224;23;20384;-95
2023/03/22 08:55:30;;;;;;;10.63;6.68;;;;;;;13.93;70.02;99262.28;6087228;23;20065;-94
2023/03/22 08:57:57;;;;;;;13.43;6.05;;;;;;;14.17;69.64;99283.84;6086824;23;20002;-95
2023/03/22 09:00:30;;;;;;;14.85;9.73;;;;;;;14.26;70.21;99284.81;6115936;23;20413;-92
2023/03/22 09:02:58;;;;;;;10.75;7.75;;;;;;;14.30;69.61;99256.03;6090976;23;20361;-90
2023/03/22 09:05:51;;;;;;;;;;;;;;;;;;;;;
2023/03/22 09:08:20;;;;;;;16.38;7.90;;;;;;;14.49;69.07;99284.97;6146264;23;20052;-92
2023/03/22 09:10:50;;;;;;;8.13;5.35;;;;;;;14.28;68.29;99260.94;6119323;23;20080;-90
2023/03/22 09:13:30;;;;;;;12.32;7.80;;;;;;;14.63;68.13;99295.88;6125975;23;20471;-91
2023/03/22 09:15:56;;;;;;;9.13;5.35;;;;;;;14.75;67.78;99297.03;6128051;23;20005;-90
2023/03/22 09:18:40;;;;;;;14.43;9.93;;;;;;;14.51;67.59;99261.09;6147564;23;20024;-89
2023/03/22 09:21:09;;;;;;;6.25;4.07;;;;;;;14.53;67.05;99281.38;6173304;23;20064;-91
2023/03/22 09:23:40;;;;;;;11.20;7.93;;;;;;;14.57;67.29;99300.59;6170872;23;20005;-91
2023/03/22 09:26:08;;;;;;;9.40;6.20;;;;;;;14.30;65.86;99266.06;6124429;23;20001;-91
2023/03/22 09:28:36;;;;;;;5.70;4.07;;;;;;;14.62;64.54;99300.50;6167600;23;20084;-92
2023/03/22 09:31:15;;;;;;;5.88;4.15;;;;;;;14.59;65.40;99278.59;6138379;23;20002;-91
2023/03/22 09:33:50;;;;;;;7.32;3.28;;;;;;;14.60;65.57;99278.31;6197715;23;20009;-89
2023/03/22 09:37:13;;;;;;;5.90;3.97;;;;;;;14.64;65.29;99270.41;6120459;23;20014;-92
2023/03/22 09:39:40;;;;;;;11.32;7.20;;;;;;;14.61;65.44;99274.50;6146835;23;20006;-91
2023/03/22 09:42:28;;;;;;;;;;;;;;;;;;;;;
2023/03/22 09:44:56;;;;;;;4.72;2.75;;;;;;;14.58;61.65;99260.75;6138668;23;20025;-90
2023/03/22 09:47:40;;;;;;;4.38;3.10;;;;;;;14.67;62.06;99276.03;6116208;23;20018;-92
2023/03/22 09:50:46;;;;;;;5.88;3.45;;;;;;;14.65;62.17;99289.06;6115931;23;20025;-89
2023/03/22 09:54:14;;;;;;;12.10;7.97;;;;;;;14.44;62.56;99266.88;6116452;23;20045;-91
2023/03/22 09:56:45;;;;;;;5.70;3.28;;;;;;;14.43;63.14;99283.47;6081918;23;20378;-89
2023/03/22 09:59:23;;;;;;;4.17;2.80;;;;;;;14.39;63.94;99290.56;6080453;23;20334;-90
2023/03/22 10:01:51;;;;;;;4.57;2.88;;;;;;;14.45;62.63;99297.50;6107909;23;20010;-90
2023/03/22 10:04:20;;;;;;;6.55;4.20;;;;;;;14.42;63.86;99303.50;6142033;23;20013;-90
2023/03/22 10:07:07;;;;;;;6.80;3.95;;;;;;;13.97;66.68;99266.03;6139388;23;20013;-92
2023/03/22 10:10:02;;;;;;;7.70;4.00;;;;;;;14.11;67.38;99306.69;6119481;23;20005;-93
2023/03/22 10:13:04;;;;;;;3.30;2.10;;;;;;;13.98;65.06;99293.88;6170943;23;20009;-92
2023/03/22 10:15:43;;;;;;;2.97;1.85;;;;;;;13.87;65.64;99298.66;6138269;23;20014;-94
2023/03/22 10:18:48;;;;;;;3.03;2.00;;;;;;;13.66;66.20;99306.22;6135630;23;20080;-94
2023/03/22 10:21:18;;;;;;;3.40;2.13;;;;;;;13.73;66.72;99266.88;6107702;23;20016;-92
2023/03/22 10:24:24;;;;;;;7.95;5.15;;;;;;;13.98;66.34;99273.03;6129721;23;20001;-92
2023/03/22 10:27:05;;;;;;;7.18;5.30;;;;;;;13.77;66.98;99266.31;6122499;23;20005;-95
2023/03/22 10:33:31;;;;;;;6.70;3.97;;;;;;;13.87;67.73;99252.63;6138993;23;20337;-91
2023/03/22 10:35:58;;;;;;;4.35;2.95;;;;;;;13.81;65.82;99264.63;6108132;23;19994;-93
2023/03/22 10:38:27;;;;;;;5.85;3.50;;;;;;;13.83;68.38;99260.53;6060747;23;20010;-93
2023/03/22 10:41:08;;;;;;;;;;;;;;;;;;;;;
2023/03/22 10:43:41;;;;;;;4.13;2.60;;;;;;;13.93;66.83;99265.78;6146121;23;20122;-96
2023/03/22 10:46:20;;;;;;;4.72;2.60;;;;;;;14.03;65.97;99255.91;6119051;23;20013;-92
2023/03/22 10:48:51;;;;;;;4.05;2.30;;;;;;;14.23;65.17;99265.63;6140347;23;20009;-89
2023/03/22 10:51:29;;;;;;;4.60;3.50;;;;;;;14.29;65.26;99272.56;6112989;23;20064;-92
2023/03/22 11:22:44;;;;;;;5.40;3.75;;;;;;;14.75;66.26;99258.25;6176899;23;20022;-96
2023/03/22 11:25:29;;;;;;;5.30;3.10;;;;;;;14.71;66.40;99244.53;6166903;23;20017;-94
2023/03/22 11:28:04;;;;;;;8.23;4.20;;;;;;;14.68;66.66;99266.78;6121533;23;20009;-94
2023/03/22 11:31:28;;;;;;;4.85;3.40;;;;;;;14.85;65.30;99265.41;6174054;23;20016;-92
2023/03/22 11:33:59;;;;;;;4.63;3.10;;;;;;;14.81;65.52;99267.09;6060111;23;20029;-89
2023/03/22 11:36:54;;;;;;;;;;;;;;;;;;;;;
2023/03/22 11:43:27;;;;;;;6.78;3.22;;;;;;;14.95;65.32;99233.47;6173641;23;20103;-89
2023/03/22 11:45:56;;;;;;;5.38;3.40;;;;;;;15.09;64.23;99228.06;6119313;23;20018;-89
2023/03/22 11:48:30;;;;;;;4.10;3.13;;;;;;;15.21;62.93;99248.44;6142666;23;20037;-87
2023/03/22 11:51:10;;;;;;;5.78;3.03;;;;;;;15.14;62.83;99217.09;6139493;23;20005;-88
2023/03/22 11:54:03;;;;;;;5.30;3.20;;;;;;;15.35;62.78;99243.81;6144522;23;20009;-86
2023/03/22 11:59:43;;;;;;;5.53;3.65;;;;;;;15.18;63.32;99213.81;6141098;23;19998;-89
2023/03/22 12:02:14;;;;;;;4.75;3.45;;;;;;;15.45;63.44;99242.81;6116641;23;20034;-88
2023/03/22 12:04:47;;;;;;;5.30;3.13;;;;;;;15.44;62.03;99224.91;6137625;23;20466;-90
2023/03/22 12:07:23;;;;;;;4.07;2.33;;;;;;;15.31;61.98;99215.69;6135055;23;20059;-89
2023/03/22 12:10:07;;;;;;;4.57;3.03;;;;;;;15.44;60.92;99228.44;6150383;23;20063;-94
2023/03/22 12:12:53;;;;;;;3.42;2.30;;;;;;;15.40;61.14;99232.88;6147653;23;20065;-88
2023/03/22 12:15:47;;;;;;;3.15;2.47;;;;;;;15.55;61.17;99240.69;6174662;23;20013;-90
2023/03/22 12:18:56;;;;;;;3.33;2.40;;;;;;;15.27;60.01;99210.09;6034912;23;20015;-90
2023/03/22 12:21:26;;;;;;;2.60;2.22;;;;;;;15.39;60.30;99220.41;6093032;23;20025;-91
2023/03/22 12:23:54;;;;;;;3.63;2.55;;;;;;;15.18;60.81;99211.09;6087649;23;20321;-91
2023/03/22 12:26:25;;;;;;;4.68;2.50;;;;;;;15.25;60.81;99204.16;6082215;23;20009;-91
2023/03/22 12:29:05;;;;;;;5.47;3.15;;;;;;;15.43;60.83;99199.69;6129419;23;20056;-87
2023/03/22 12:31:38;;;;;;;5.65;3.55;;;;;;;15.46;60.05;99209.94;6081050;23;20084;-87
2023/03/22 12:34:20;;;;;;;4.55;2.60;;;;;;;15.52;59.62;99230.44;6080721;23;20093;-87
2023/03/22 12:36:51;;;;;;;4.72;3.13;;;;;;;15.16;60.23;99223.03;6083061;23;20005;-89
2023/03/22 12:39:58;;;;;;;5.03;3.20;;;;;;;15.45;60.71;99238.19;6081174;23;20001;-88